createdAt,value
2022-10-07T00:02:24.393Z,4.13
2022-10-07T00:04:51.095Z,4.07
2022-10-07T00:07:17.739Z,4.07
2022-10-07T00:09:44.379Z,4.06
2022-10-07T00:12:11.597Z,4.08
2022-10-07T00:14:39.554Z,4.03
2022-10-07T00:17:06.231Z,4.19
2022-10-07T00:19:32.994Z,4.08
2022-10-07T00:21:59.796Z,4.01
2022-10-07T00:24:26.785Z,3.97
2022-10-07T00:26:53.572Z,3.93
2022-10-07T00:29:23.906Z,4.06
2022-10-07T00:31:56.959Z,4.36
2022-10-07T00:34:24.690Z,4.38
2022-10-07T00:36:51.490Z,4.40
2022-10-07T00:39:18.777Z,4.20
2022-10-07T00:41:51.748Z,4.13
2022-10-07T00:44:24.496Z,4.03
2022-10-07T00:46:52.200Z,4.01
2022-10-07T00:49:18.784Z,3.92
2022-10-07T00:51:45.372Z,3.85
2022-10-07T00:54:16.170Z,3.83
2022-10-07T00:56:45.067Z,3.65
2022-10-07T00:59:13.218Z,3.76
2022-10-07T01:01:42.067Z,3.78
2022-10-07T01:04:12.109Z,3.75
2022-10-07T01:06:39.234Z,3.87
2022-10-07T01:09:11.382Z,3.87
2022-10-07T01:11:50.989Z,3.77
2022-10-07T01:14:29.506Z,3.66
2022-10-07T01:17:03.846Z,3.73
2022-10-07T01:19:48.500Z,3.68
2022-10-07T01:22:41.336Z,3.72
2022-10-07T01:25:23.633Z,3.65
2022-10-07T01:28:14.990Z,3.58
2022-10-07T01:30:46.849Z,3.46
2022-10-07T01:33:18.995Z,3.46
2022-10-07T01:35:50.719Z,3.51
2022-10-07T01:38:22.185Z,3.57
2022-10-07T01:40:56.552Z,3.53
2022-10-07T01:43:23.574Z,3.51
2022-10-07T01:45:52.398Z,3.57
2022-10-07T01:48:18.963Z,3.53
2022-10-07T01:50:46.206Z,3.50
2022-10-07T01:53:42.315Z,3.64
2022-10-07T01:56:33.679Z,3.69
2022-10-07T01:59:04.645Z,3.55
2022-10-07T02:02:07.068Z,3.52
2022-10-07T02:04:45.063Z,3.26
2022-10-07T02:07:46.150Z,3.25
2022-10-07T02:10:16.047Z,3.33
2022-10-07T02:12:57.318Z,3.32
2022-10-07T02:15:34.571Z,3.27
2022-10-07T02:18:06.230Z,3.11
2022-10-07T02:20:36.153Z,3.23
2022-10-07T02:23:07.738Z,3.25
2022-10-07T02:25:41.600Z,3.05
2022-10-07T02:28:11.515Z,3.00
2022-10-07T02:30:41.306Z,3.01
2022-10-07T02:33:09.804Z,3.08
2022-10-07T02:35:39.702Z,3.20
2022-10-07T02:38:10.894Z,3.11
2022-10-07T02:40:43.917Z,3.02
2022-10-07T02:43:24.922Z,3.02
2022-10-07T02:45:58.601Z,2.95
2022-10-07T02:48:34.409Z,3.04
2022-10-07T02:51:04.856Z,3.14
2022-10-07T02:53:33.077Z,3.00
2022-10-07T02:56:02.720Z,3.10
2022-10-07T02:58:29.822Z,3.11
2022-10-07T03:00:59.337Z,3.02
2022-10-07T03:03:27.067Z,3.03
2022-10-07T03:05:59.246Z,2.91
2022-10-07T03:08:27.566Z,2.86
2022-10-07T03:10:55.129Z,2.86
2022-10-07T03:13:22.313Z,2.76
2022-10-07T03:15:53.049Z,2.74
2022-10-07T03:18:28.591Z,2.75
2022-10-07T03:21:18.117Z,3.15
2022-10-07T03:23:51.034Z,3.20
2022-10-07T03:26:19.255Z,3.22
2022-10-07T03:28:47.151Z,3.20
2022-10-07T03:31:15.516Z,3.19
2022-10-07T03:33:46.861Z,3.14
2022-10-07T03:36:13.706Z,3.10
2022-10-07T03:38:43.079Z,3.07
2022-10-07T03:41:11.156Z,3.11
2022-10-07T03:43:38.206Z,2.95
2022-10-07T03:46:06.635Z,3.29
2022-10-07T03:48:36.043Z,3.36
2022-10-07T03:51:02.711Z,3.20
2022-10-07T03:53:31.384Z,3.31
2022-10-07T03:56:00.489Z,2.95
2022-10-07T03:58:29.433Z,2.67
2022-10-07T04:01:14.977Z,2.99
2022-10-07T04:03:47.467Z,2.88
2022-10-07T04:06:14.490Z,3.01
2022-10-07T04:08:41.482Z,3.16
2022-10-07T04:11:08.857Z,2.92
2022-10-07T04:13:40.408Z,2.96
2022-10-07T04:16:09.039Z,2.97
2022-10-07T04:18:36.839Z,3.05
2022-10-07T04:21:03.578Z,3.05
2022-10-07T04:23:32.437Z,2.60
2022-10-07T04:26:01.298Z,2.93
2022-10-07T04:28:29.003Z,2.87
2022-10-07T04:31:08.626Z,2.76
2022-10-07T04:33:40.550Z,2.58
2022-10-07T04:36:10.358Z,2.45
2022-10-07T04:39:05.925Z,2.43
2022-10-07T04:41:35.995Z,2.47
2022-10-07T04:44:05.719Z,2.48
2022-10-07T04:46:36.934Z,2.31
2022-10-07T04:49:10.978Z,2.42
2022-10-07T04:51:37.878Z,2.52
2022-10-07T04:54:05.049Z,2.43
2022-10-07T04:56:38.307Z,2.70
2022-10-07T04:59:07.663Z,2.66
2022-10-07T05:01:36.367Z,2.40
2022-10-07T05:04:03.110Z,2.50
2022-10-07T05:06:29.947Z,2.45
2022-10-07T05:08:56.617Z,2.50
2022-10-07T05:11:25.821Z,2.46
2022-10-07T05:13:58.493Z,2.47
2022-10-07T05:16:25.987Z,2.26
2022-10-07T05:18:52.524Z,2.46
2022-10-07T05:21:19.107Z,2.36
2022-10-07T05:23:47.671Z,2.47
2022-10-07T05:26:34.596Z,2.28
2022-10-07T05:29:03.537Z,2.29
2022-10-07T05:31:37.158Z,2.08
2022-10-07T05:34:05.373Z,2.16
2022-10-07T05:36:32.998Z,2.21
2022-10-07T05:39:01.025Z,2.26
2022-10-07T05:41:45.796Z,2.21
2022-10-07T05:44:15.686Z,2.21
2022-10-07T05:46:42.831Z,2.29
2022-10-07T05:49:10.386Z,2.29
2022-10-07T05:51:36.910Z,2.18
2022-10-07T05:54:03.668Z,2.21
2022-10-07T05:56:37.035Z,2.26
2022-10-07T05:59:04.360Z,2.38
2022-10-07T06:01:31.467Z,2.29
2022-10-07T06:04:03.190Z,2.32
2022-10-07T06:06:32.626Z,2.28
2022-10-07T06:09:21.466Z,2.23
2022-10-07T06:12:07.300Z,2.65
2022-10-07T06:14:36.038Z,2.73
2022-10-07T06:17:04.761Z,2.89
2022-10-07T06:19:31.686Z,2.86
2022-10-07T06:22:00.961Z,3.01
2022-10-07T06:24:27.572Z,2.93
2022-10-07T06:26:58.713Z,2.77
2022-10-07T06:29:26.314Z,2.79
2022-10-07T06:31:52.957Z,2.77
2022-10-07T06:34:19.491Z,3.06
2022-10-07T06:36:46.450Z,2.97
2022-10-07T06:39:16.181Z,3.00
2022-10-07T06:41:43.458Z,3.19
2022-10-07T06:44:27.338Z,3.50
2022-10-07T06:46:55.302Z,3.69
2022-10-07T06:49:23.249Z,3.70
2022-10-07T06:51:51.326Z,4.15
2022-10-07T06:54:18.398Z,3.90
2022-10-07T06:56:44.923Z,3.83
2022-10-07T06:59:11.430Z,4.38
2022-10-07T07:02:13.162Z,4.90
2022-10-07T07:04:40.814Z,4.85
2022-10-07T07:07:07.510Z,4.81
2022-10-07T07:09:34.022Z,4.80
2022-10-07T07:12:00.992Z,4.94
2022-10-07T07:14:35.697Z,4.97
2022-10-07T07:17:14.040Z,5.01
2022-10-07T07:19:40.865Z,6.28
2022-10-07T07:22:08.159Z,5.64
2022-10-07T07:24:35.180Z,5.35
2022-10-07T07:27:03.000Z,5.48
2022-10-07T07:29:30.530Z,5.35
2022-10-07T07:32:00.020Z,5.63
2022-10-07T07:34:30.209Z,5.52
2022-10-07T07:36:57.262Z,5.67
2022-10-07T07:39:28.713Z,6.24
2022-10-07T07:42:01.871Z,6.29
2022-10-07T07:44:33.977Z,6.57
2022-10-07T07:47:02.245Z,6.91
2022-10-07T07:49:31.873Z,6.88
2022-10-07T07:51:59.092Z,7.54
2022-10-07T07:54:30.549Z,7.42
2022-10-07T07:56:58.200Z,7.80
2022-10-07T07:59:27.951Z,7.67
2022-10-07T08:01:57.048Z,8.14
2022-10-07T08:04:23.969Z,8.50
2022-10-07T08:06:51.756Z,8.85
2022-10-07T08:09:19.271Z,8.65
2022-10-07T08:11:48.012Z,8.40
2022-10-07T08:14:17.266Z,8.29
2022-10-07T08:16:47.294Z,8.54
2022-10-07T08:19:13.884Z,8.89
2022-10-07T08:21:40.672Z,9.28
2022-10-07T08:24:12.435Z,9.85
2022-10-07T08:26:40.027Z,9.86
2022-10-07T08:29:09.851Z,9.87
2022-10-07T08:31:39.315Z,9.80
2022-10-07T08:34:06.430Z,10.77
2022-10-07T08:36:35.956Z,10.91
2022-10-07T08:39:04.579Z,11.38
2022-10-07T08:41:32.810Z,12.18
2022-10-07T08:44:17.337Z,12.34
2022-10-07T08:47:21.790Z,11.56
2022-10-07T08:50:09.760Z,11.43
2022-10-07T08:52:39.235Z,10.89
2022-10-07T08:55:28.246Z,11.05
2022-10-07T08:58:19.704Z,11.13
2022-10-07T09:01:03.263Z,10.88
2022-10-07T09:03:45.474Z,11.16
2022-10-07T09:06:17.938Z,11.53
2022-10-07T09:08:47.988Z,11.39
2022-10-07T09:11:25.495Z,11.46
2022-10-07T09:14:22.286Z,12.02
2022-10-07T09:16:49.978Z,12.44
2022-10-07T09:19:48.381Z,12.30
2022-10-07T09:22:21.450Z,12.21
2022-10-07T09:24:49.634Z,12.36
2022-10-07T09:27:20.091Z,12.52
2022-10-07T09:29:47.233Z,12.86
2022-10-07T09:32:17.390Z,13.20
2022-10-07T09:34:44.624Z,13.60
2022-10-07T09:37:26.013Z,13.82
2022-10-07T09:39:54.971Z,14.16
2022-10-07T09:42:40.011Z,13.65
2022-10-07T09:45:21.258Z,13.95
2022-10-07T09:47:53.030Z,13.70
2022-10-07T09:50:41.042Z,14.43
2022-10-07T09:53:24.935Z,13.94
2022-10-07T09:55:53.608Z,14.14
2022-10-07T09:58:28.479Z,14.08
2022-10-07T10:00:57.737Z,14.37
2022-10-07T10:03:32.783Z,14.66
2022-10-07T10:06:07.711Z,14.85
2022-10-07T10:08:42.047Z,14.50
2022-10-07T10:11:17.676Z,14.58
2022-10-07T10:13:44.245Z,15.46
2022-10-07T10:16:34.383Z,15.71
2022-10-07T10:19:03.107Z,15.34
2022-10-07T10:21:35.657Z,15.84
2022-10-07T10:24:40.533Z,15.24
2022-10-07T10:27:15.379Z,15.18
2022-10-07T10:29:45.828Z,14.80
2022-10-07T10:32:43.438Z,15.12
2022-10-07T10:35:22.149Z,15.30
2022-10-07T10:38:25.647Z,15.09
2022-10-07T10:40:59.061Z,15.60
2022-10-07T10:43:25.469Z,15.69
2022-10-07T10:46:25.984Z,16.19
2022-10-07T10:49:19.712Z,16.27
2022-10-07T10:52:24.805Z,16.30
2022-10-07T10:55:12.848Z,16.67
2022-10-07T10:57:48.008Z,16.67
2022-10-07T11:00:22.866Z,16.94
2022-10-07T11:03:12.531Z,16.83
2022-10-07T11:05:40.708Z,17.06
2022-10-07T11:08:10.440Z,16.93
2022-10-07T11:10:51.533Z,17.17
2022-10-07T11:13:36.891Z,17.06
2022-10-07T11:16:24.838Z,16.91
2022-10-07T11:19:00.823Z,16.99
2022-10-07T11:21:32.592Z,16.82
2022-10-07T11:24:05.069Z,16.99
2022-10-07T11:26:41.217Z,16.99
2022-10-07T11:29:23.431Z,17.27
2022-10-07T11:31:58.157Z,17.66
2022-10-07T11:34:43.888Z,17.88
2022-10-07T11:37:33.565Z,17.87
2022-10-07T11:40:05.155Z,17.99
2022-10-07T11:42:40.276Z,18.22
2022-10-07T11:45:12.066Z,18.09
2022-10-07T11:47:52.683Z,18.16
2022-10-07T11:50:26.663Z,17.67
2022-10-07T11:53:01.365Z,18.80
2022-10-07T11:55:34.742Z,18.62
2022-10-07T11:58:04.124Z,18.12
2022-10-07T12:00:32.360Z,18.22
2022-10-07T12:03:25.539Z,19.58
2022-10-07T12:05:53.299Z,19.79
2022-10-07T12:08:31.997Z,21.02
2022-10-07T12:11:14.458Z,21.81
2022-10-07T12:13:47.342Z,21.41
2022-10-07T12:16:30.202Z,21.69
2022-10-07T12:19:10.454Z,22.44
2022-10-07T12:21:57.127Z,21.17
2022-10-07T12:24:23.583Z,21.93
2022-10-07T12:26:51.058Z,21.16
2022-10-07T12:29:28.740Z,21.62
2022-10-07T12:31:55.768Z,21.63
2022-10-07T12:34:35.736Z,21.04
2022-10-07T12:37:40.827Z,19.96
2022-10-07T12:40:17.403Z,20.77
2022-10-07T12:42:52.150Z,20.48
2022-10-07T12:45:21.822Z,19.95
2022-10-07T12:47:52.726Z,19.68
2022-10-07T12:50:21.637Z,18.80
2022-10-07T12:52:52.927Z,19.01
2022-10-07T12:55:29.431Z,18.71
2022-10-07T12:58:17.372Z,19.16
2022-10-07T13:01:14.685Z,18.49
2022-10-07T13:04:10.945Z,18.54
2022-10-07T13:07:16.966Z,18.12
2022-10-07T13:10:20.471Z,17.70
2022-10-07T13:12:55.726Z,17.77
2022-10-07T13:15:56.779Z,17.42
2022-10-07T13:18:57.208Z,17.50
2022-10-07T13:21:26.718Z,17.17
2022-10-07T13:23:55.199Z,16.95
2022-10-07T13:26:24.102Z,17.24
2022-10-07T13:28:54.570Z,17.40
2022-10-07T13:31:27.157Z,17.18
2022-10-07T13:33:55.157Z,16.62
2022-10-07T13:36:26.091Z,16.73
2022-10-07T13:38:55.260Z,16.69
2022-10-07T13:41:30.378Z,16.95
2022-10-07T13:44:02.860Z,17.06
2022-10-07T13:46:32.438Z,16.90
2022-10-07T13:48:59.927Z,16.85
2022-10-07T13:51:29.406Z,16.13
2022-10-07T13:54:02.670Z,16.55
2022-10-07T13:56:37.731Z,16.68
2022-10-07T13:59:06.807Z,16.55
2022-10-07T14:01:37.990Z,16.62
2022-10-07T14:04:26.385Z,16.65
2022-10-07T14:07:12.822Z,16.50
2022-10-07T14:09:57.921Z,16.69
2022-10-07T14:12:31.341Z,16.63
2022-10-07T14:15:06.261Z,16.69
2022-10-07T14:17:38.611Z,16.68
2022-10-07T14:20:16.790Z,16.89
2022-10-07T14:22:48.761Z,16.90
2022-10-07T14:25:21.778Z,16.82
2022-10-07T14:27:57.628Z,16.87
2022-10-07T14:30:57.614Z,16.88
2022-10-07T14:34:07.650Z,16.73
2022-10-07T14:36:36.011Z,16.71
2022-10-07T14:39:23.615Z,16.53
2022-10-07T14:41:50.894Z,16.50
2022-10-07T14:44:18.167Z,16.43
2022-10-07T14:46:44.718Z,16.21
2022-10-07T14:49:11.258Z,16.20
2022-10-07T14:51:37.805Z,15.97
2022-10-07T14:54:07.275Z,16.14
2022-10-07T14:56:39.035Z,16.20
2022-10-07T14:59:13.655Z,16.13
2022-10-07T15:01:40.141Z,15.99
2022-10-07T15:04:06.870Z,15.99
2022-10-07T15:06:34.506Z,15.91
2022-10-07T15:09:00.948Z,15.88
2022-10-07T15:11:27.826Z,15.71
2022-10-07T15:13:54.297Z,15.66
2022-10-07T15:16:23.621Z,15.49
2022-10-07T15:18:52.909Z,15.84
2022-10-07T15:21:21.791Z,15.81
2022-10-07T15:23:54.944Z,15.70
2022-10-07T15:26:24.443Z,15.75
2022-10-07T15:28:56.292Z,15.71
2022-10-07T15:31:24.938Z,15.67
2022-10-07T15:33:51.631Z,15.68
2022-10-07T15:36:18.122Z,15.53
2022-10-07T15:38:44.611Z,15.52
2022-10-07T15:41:28.562Z,15.32
2022-10-07T15:43:59.802Z,15.19
2022-10-07T15:46:26.412Z,15.10
2022-10-07T15:48:56.505Z,15.11
2022-10-07T15:51:25.417Z,14.97
2022-10-07T15:53:55.217Z,14.76
2022-10-07T15:56:21.743Z,14.89
2022-10-07T15:58:48.416Z,14.73
2022-10-07T16:01:15.391Z,14.64
2022-10-07T16:03:44.673Z,14.54
2022-10-07T16:06:14.255Z,14.37
2022-10-07T16:08:40.815Z,14.31
2022-10-07T16:11:09.742Z,14.26
2022-10-07T16:13:37.689Z,14.26
2022-10-07T16:16:11.163Z,14.17
2022-10-07T16:18:40.874Z,13.93
2022-10-07T16:21:15.237Z,13.51
2022-10-07T16:23:48.038Z,13.46
2022-10-07T16:26:17.410Z,13.61
2022-10-07T16:29:08.134Z,13.73
2022-10-07T16:31:36.989Z,13.65
2022-10-07T16:34:04.186Z,13.62
2022-10-07T16:36:31.061Z,13.68
2022-10-07T16:39:03.282Z,13.80
2022-10-07T16:41:31.407Z,13.68
2022-10-07T16:44:01.871Z,13.47
2022-10-07T16:46:29.485Z,13.13
2022-10-07T16:48:55.999Z,12.94
2022-10-07T16:51:25.703Z,13.20
2022-10-07T16:53:57.369Z,13.03
2022-10-07T16:56:23.954Z,12.90
2022-10-07T16:58:57.786Z,12.94
2022-10-07T17:01:25.605Z,12.93
2022-10-07T17:03:53.989Z,12.76
2022-10-07T17:06:22.876Z,12.75
2022-10-07T17:08:49.783Z,12.98
2022-10-07T17:11:29.731Z,12.86
2022-10-07T17:14:01.687Z,12.73
2022-10-07T17:16:32.478Z,12.61
2022-10-07T17:18:59.098Z,12.56
2022-10-07T17:21:25.868Z,12.52
2022-10-07T17:23:52.766Z,12.53
2022-10-07T17:26:20.756Z,12.30
2022-10-07T17:28:49.816Z,12.32
2022-10-07T17:31:16.874Z,12.13
2022-10-07T17:33:44.139Z,11.96
2022-10-07T17:36:12.333Z,12.10
2022-10-07T17:38:40.690Z,12.04
2022-10-07T17:41:16.857Z,12.12
2022-10-07T17:43:43.894Z,12.03
2022-10-07T17:46:13.642Z,12.10
2022-10-07T17:48:45.312Z,11.72
2022-10-07T17:51:12.675Z,11.77
2022-10-07T17:53:42.385Z,11.70
2022-10-07T17:56:11.930Z,11.34
2022-10-07T17:58:40.117Z,11.29
2022-10-07T18:01:23.870Z,11.26
2022-10-07T18:03:53.093Z,11.50
2022-10-07T18:06:20.446Z,11.39
2022-10-07T18:08:47.920Z,11.41
2022-10-07T18:11:15.731Z,11.27
2022-10-07T18:14:00.913Z,11.04
2022-10-07T18:16:30.789Z,11.09
2022-10-07T18:18:57.619Z,11.00
2022-10-07T18:21:25.144Z,11.01
2022-10-07T18:23:52.614Z,11.03
2022-10-07T18:26:19.132Z,11.23
2022-10-07T18:28:46.756Z,10.95
2022-10-07T18:31:15.706Z,10.91
2022-10-07T18:33:43.183Z,10.91
2022-10-07T18:36:12.896Z,10.98
2022-10-07T18:38:41.554Z,10.74
2022-10-07T18:41:12.946Z,10.61
2022-10-07T18:43:40.169Z,10.77
2022-10-07T18:46:08.290Z,10.94
2022-10-07T18:48:37.222Z,10.49
2022-10-07T18:51:04.931Z,10.43
2022-10-07T18:53:34.926Z,10.57
2022-10-07T18:56:07.166Z,10.71
2022-10-07T18:58:36.108Z,10.49
2022-10-07T19:01:11.510Z,10.22
2022-10-07T19:03:38.630Z,10.10
2022-10-07T19:06:11.636Z,10.09
2022-10-07T19:08:38.771Z,10.18
2022-10-07T19:11:10.713Z,10.10
2022-10-07T19:13:53.382Z,10.16
2022-10-07T19:16:49.187Z,10.25
2022-10-07T19:19:23.966Z,10.29
2022-10-07T19:21:55.078Z,10.30
2022-10-07T19:24:45.095Z,10.31
2022-10-07T19:27:11.631Z,10.32
2022-10-07T19:29:38.216Z,10.35
2022-10-07T19:32:08.597Z,10.32
2022-10-07T19:34:35.897Z,10.31
2022-10-07T19:37:02.611Z,9.93
2022-10-07T19:39:29.126Z,10.02
2022-10-07T19:41:56.157Z,10.07
2022-10-07T19:44:22.736Z,9.83
2022-10-07T19:46:54.120Z,9.88
2022-10-07T19:49:20.753Z,9.74
2022-10-07T19:51:47.263Z,9.79
2022-10-07T19:54:13.930Z,9.75
2022-10-07T19:56:40.995Z,9.81
2022-10-07T19:59:09.883Z,9.84
2022-10-07T20:01:39.508Z,9.85
2022-10-07T20:04:21.209Z,9.85
2022-10-07T20:06:48.380Z,9.84
2022-10-07T20:09:17.494Z,9.80
2022-10-07T20:11:44.610Z,9.85
2022-10-07T20:14:11.262Z,9.80
2022-10-07T20:16:39.053Z,9.87
2022-10-07T20:19:15.406Z,9.80
2022-10-07T20:21:42.582Z,9.79
2022-10-07T20:24:14.437Z,9.76
2022-10-07T20:26:42.447Z,9.83
2022-10-07T20:29:10.382Z,9.57
2022-10-07T20:31:39.710Z,9.60
2022-10-07T20:34:08.267Z,9.65
2022-10-07T20:36:38.469Z,9.59
2022-10-07T20:39:33.572Z,9.47
2022-10-07T20:42:18.760Z,9.51
2022-10-07T20:44:48.263Z,9.67
2022-10-07T20:47:15.230Z,9.57
2022-10-07T20:49:42.319Z,9.39
2022-10-07T20:52:16.647Z,9.63
2022-10-07T20:54:44.371Z,9.39
2022-10-07T20:57:16.466Z,9.28
2022-10-07T20:59:43.954Z,9.31
2022-10-07T21:02:11.752Z,9.35
2022-10-07T21:04:38.453Z,9.41
2022-10-07T21:07:05.498Z,9.42
2022-10-07T21:09:36.300Z,9.63
2022-10-07T21:12:05.037Z,9.74
2022-10-07T21:14:31.524Z,9.60
2022-10-07T21:16:58.854Z,9.34
2022-10-07T21:19:25.829Z,9.34
2022-10-07T21:21:52.590Z,9.26
2022-10-07T21:24:19.229Z,9.22
2022-10-07T21:26:46.978Z,9.51
2022-10-07T21:29:14.630Z,9.35
2022-10-07T21:31:42.359Z,9.40
2022-10-07T21:34:09.933Z,9.46
2022-10-07T21:36:44.814Z,9.42
2022-10-07T21:39:13.055Z,9.54
2022-10-07T21:41:40.630Z,9.75
2022-10-07T21:44:10.990Z,9.70
2022-10-07T21:46:38.463Z,9.74
2022-10-07T21:49:07.723Z,9.79
2022-10-07T21:51:35.152Z,9.97
2022-10-07T21:54:02.603Z,9.77
2022-10-07T21:56:31.738Z,9.85
2022-10-07T21:59:01.260Z,9.71
2022-10-07T22:01:28.651Z,9.52
2022-10-07T22:03:57.491Z,9.50
2022-10-07T22:06:44.135Z,9.49
2022-10-07T22:09:12.230Z,9.47
2022-10-07T22:11:38.894Z,9.52
2022-10-07T22:14:09.961Z,9.55
2022-10-07T22:16:38.834Z,9.75
2022-10-07T22:19:05.936Z,9.75
2022-10-07T22:21:33.407Z,9.72
2022-10-07T22:24:02.718Z,9.53
2022-10-07T22:26:33.319Z,9.21
2022-10-07T22:29:00.255Z,9.15
2022-10-07T22:31:27.005Z,9.35
2022-10-07T22:33:56.334Z,9.37
2022-10-07T22:36:23.518Z,9.41
2022-10-07T22:38:50.906Z,9.49
2022-10-07T22:41:19.342Z,9.50
2022-10-07T22:43:47.296Z,9.54
2022-10-07T22:46:17.638Z,9.42
2022-10-07T22:48:48.463Z,9.48
2022-10-07T22:51:16.486Z,9.57
2022-10-07T22:53:47.831Z,9.58
2022-10-07T22:56:17.527Z,9.54
2022-10-07T22:58:49.494Z,9.59
2022-10-07T23:01:17.090Z,9.44
2022-10-07T23:03:44.603Z,9.45
2022-10-07T23:06:13.600Z,9.63
2022-10-07T23:08:40.550Z,9.65
2022-10-07T23:11:08.110Z,9.58
2022-10-07T23:13:36.402Z,9.68
2022-10-07T23:16:11.158Z,9.90
2022-10-07T23:18:38.656Z,9.76
2022-10-07T23:21:11.830Z,9.68
2022-10-07T23:23:39.688Z,9.62
2022-10-07T23:26:15.778Z,9.71
2022-10-07T23:28:42.396Z,9.79
2022-10-07T23:31:14.014Z,9.93
2022-10-07T23:33:41.071Z,10.21
2022-10-07T23:36:10.417Z,10.29
2022-10-07T23:38:38.980Z,10.17
2022-10-07T23:41:06.806Z,9.92
2022-10-07T23:43:33.506Z,9.83
2022-10-07T23:46:01.278Z,9.56
2022-10-07T23:48:28.094Z,9.59
2022-10-07T23:50:57.447Z,9.55
2022-10-07T23:53:23.924Z,9.37
2022-10-07T23:55:52.909Z,9.26
2022-10-07T23:58:22.391Z,9.33
